Mondamin, IA (51557)

7:52 AM CDT on September 16, 2019 (GMT -0500)
Tyson Farms | | Change Station
Active Advisory: Flood Warning

Elev 997 ft 41.63 °N, 96.12 °W | Updated 54 minutes ago

Clear
Clear
71.1 °F
Feels Like 71 °F
N
2
Wind Variable Wind from SSW
Gusts 4.0 mph

Today
High -- | Low -- °F
--% Chance of Precip.
Yesterday
High -- | Low -- °F
Precip. -- in
Pressure 29.97 in
Visibility 6.0 miles
Clouds Clear
Heat Index 71 °F
Dew Point 65 °F
Humidity 82%
Rainfall 0.00 in
Snow Depth Not available.
7:05 AM 7:32 PM
Waning Gibbous, 95% visible
METAR KTQE 161154Z AUTO 16004KT 6SM BR CLR 17/17 A3000 RMK AO2 SLP148 T01670167 10194 20167 53005
Pressure 29.97 in
Visibility 6.0 miles
Clouds Clear
Heat Index 71 °F
Dew Point 65 °F
Humidity 82%
Rainfall 0.00 in
Snow Depth Not available.
7:05 AM 7:32 PM
Waning Gibbous, 95% visible
METAR KTQE 161154Z AUTO 16004KT 6SM BR CLR 17/17 A3000 RMK AO2 SLP148 T01670167 10194 20167 53005

Get Your Daily Forecast Email!

Thanks for signing up!

Be on the lookout for a verification email in your inbox.

You'll start receiving severe weather alerts in your inbox..

×

10-Day Weather Forecast

Almanac

Astronomy

Sep. 16, 2019 Rise Set
Actual Time
Civil Twilight
Nautical Twilight
Astronomical Twilight
Moon
Length of Visible Light
Length of Day
Tomorrow will be .
, % of the Moon is Illuminated

Today's Extremes

State Highs State Lows

Community

WunderPhotos

Category 6

Welcome to Category 6. This is the collective home for Weather Underground's featured writeups by Dr. Jeff Masters (right), Bob Henson (left), Chris Burt, and other regular contributors.

Nearby

Air Quality

  Air Quality AQ Index Pollutant
Not available.

Snow Depth

Station Depth Elevation

Earthquake Activity

City Distance Mag. Time & Date
Minimum magnitude displayed is 2.5.

Coastal Water Temperatures

Place Temperature

Stations

Nearby Weather Stations

Station Location Temp. Windchill Dew Point Humidity Wind Precip. Elev Updated Type
                   

Watches & Warnings

Flood Warning
Issued: 8:28 PM CDT Sep. 15, 2019 – National Weather Service

The Flood Warning continues for
the Missouri River near Blair.
* From this evening until further notice... or until the warning is
cancelled.
* At 8:00 PM Sunday the stage was 26.0 feet... or 0.5 feet below
flood stage.
* Flood stage is 26.5 feet.
* Moderate flooding is forecast.
* Forecast... rise above flood stage overnight and continue to rise
to near 29.1 feet by Thursday evening.


Lat... Lon 4180 9624 4180 9595 4142 9583 4142 9602
      4168 9626